createdAt,value
2017-01-22T09:10:05.917Z,58.58
2017-01-22T09:11:16.117Z,55.45
2017-01-22T09:12:25.843Z,52.26
2017-01-22T09:13:35.559Z,50.4
2017-01-22T09:14:45.737Z,49.71
2017-01-22T09:15:55.954Z,49.97
2017-01-22T09:17:05.676Z,49.21
2017-01-22T09:18:15.404Z,48.71
2017-01-22T09:19:25.573Z,49.47
2017-01-22T09:20:35.299Z,50.52
2017-01-22T09:21:45.076Z,52.04
2017-01-22T09:22:55.245Z,52.73
2017-01-22T09:24:05.435Z,53.72
2017-01-22T09:25:14.728Z,54.19
2017-01-22T09:26:24.917Z,54.79
2017-01-22T09:27:34.259Z,54.6
2017-01-22T09:28:44.429Z,54.99
2017-01-22T09:29:54.169Z,54.63
2017-01-22T09:31:04.774Z,54.72
2017-01-22T09:32:14.504Z,54.85
2017-01-22T09:33:23.837Z,54.75
2017-01-22T09:34:33.562Z,55.04
2017-01-22T09:35:43.295Z,55.23
2017-01-22T09:36:53.029Z,54.49
2017-01-22T09:38:02.758Z,54.78
2017-01-22T09:39:12.532Z,54.3
2017-01-22T09:40:22.265Z,55.07
2017-01-22T09:41:31.994Z,54.49
2017-01-22T09:42:41.731Z,54.04
2017-01-22T09:43:51.464Z,54.04
2017-01-22T09:45:02.130Z,54.23
2017-01-22T09:46:11.855Z,53.94
2017-01-22T09:47:22.033Z,53.69
2017-01-22T09:48:32.210Z,53.78
2017-01-22T09:49:42.564Z,53.49
2017-01-22T09:50:52.788Z,53.2
2017-01-22T09:52:02.519Z,53.49
2017-01-22T09:53:13.127Z,53.04
2017-01-22T09:54:23.296Z,53.14
2017-01-22T09:55:33.534Z,53.23
2017-01-22T09:56:43.315Z,52.56
2017-01-22T09:57:52.603Z,52.56
2017-01-22T09:59:02.777Z,52.47
2017-01-22T10:00:12.510Z,52.59
2017-01-22T10:01:21.791Z,52.5
2017-01-22T10:02:32.458Z,52.11
2017-01-22T10:03:42.622Z,51.73
2017-01-22T10:04:52.351Z,51.82
2017-01-22T10:06:01.848Z,51.73
2017-01-22T10:07:11.142Z,51.63
2017-01-22T10:08:21.268Z,51.92
2017-01-22T10:09:31.616Z,51.37
2017-01-22T10:10:42.265Z,51.08
2017-01-22T10:11:52.443Z,51.18
2017-01-22T10:13:02.779Z,51.18
2017-01-22T10:14:13.337Z,50.7
2017-01-22T10:15:23.070Z,50.89
2017-01-22T10:16:33.382Z,50.79
2017-01-22T10:17:43.824Z,50.51
2017-01-22T10:18:53.557Z,51.08
2017-01-22T10:20:03.707Z,50.99
2017-01-22T10:21:14.087Z,50.92
2017-01-22T10:22:24.445Z,51.01
2017-01-22T10:23:34.622Z,50.73
2017-01-22T10:24:44.799Z,50.53
2017-01-22T10:25:54.584Z,50.73
2017-01-22T10:27:04.762Z,50.82
2017-01-22T10:28:14.695Z,51.01
2017-01-22T10:29:24.616Z,51.01
2017-01-22T10:30:35.229Z,50.92
2017-01-22T10:31:45.455Z,50.43
2017-01-22T10:32:54.956Z,50.92
2017-01-22T10:34:05.129Z,50.53
2017-01-22T10:35:14.619Z,50.63
2017-01-22T10:36:25.003Z,51.1
2017-01-22T10:37:35.377Z,51.01
2017-01-22T10:38:44.690Z,50.92
2017-01-22T10:39:54.431Z,50.92
2017-01-22T10:41:04.157Z,50.82
2017-01-22T10:42:13.890Z,50.82
2017-01-22T10:43:24.111Z,50.73
2017-01-22T10:44:33.841Z,50.82
2017-01-22T10:45:43.579Z,50.73
2017-01-22T10:46:53.311Z,50.75
2017-01-22T10:48:04.532Z,50.84
2017-01-22T10:49:14.868Z,51.14
2017-01-22T10:50:24.471Z,51.04
2017-01-22T10:51:34.222Z,50.75
2017-01-22T10:52:44.061Z,50.08
2017-01-22T10:53:54.098Z,50.37
2017-01-22T10:55:03.903Z,50.56
2017-01-22T10:56:13.644Z,50.56
2017-01-22T10:57:23.823Z,50.46
2017-01-22T10:58:33.552Z,50.65
2017-01-22T10:59:43.276Z,50.17
2017-01-22T11:00:53.502Z,49.88
2017-01-22T11:02:03.343Z,49.88
2017-01-22T11:03:13.164Z,49.79
2017-01-22T11:04:23.340Z,50.17
2017-01-22T11:05:33.534Z,49.88
2017-01-22T11:06:43.848Z,49.69
2017-01-22T11:07:54.022Z,49.88
2017-01-22T11:09:03.855Z,49.79
2017-01-22T11:10:13.589Z,49.79
2017-01-22T11:11:23.409Z,49.69
2017-01-22T11:12:33.186Z,49.79
2017-01-22T11:13:43.864Z,50.17
2017-01-22T11:14:53.309Z,49.88
2017-01-22T11:16:03.661Z,49.88
2017-01-22T11:17:13.515Z,49.79
2017-01-22T11:18:22.950Z,49.79
2017-01-22T11:19:33.234Z,50.08
2017-01-22T11:20:43.066Z,49.79
2017-01-22T11:21:52.824Z,50.17
2017-01-22T11:23:02.997Z,50.08
2017-01-22T11:24:13.217Z,49.6
2017-01-22T11:25:23.839Z,49.98
2017-01-22T11:26:33.565Z,50.08
2017-01-22T11:27:43.294Z,50.17
2017-01-22T11:28:53.023Z,50.17
2017-01-22T11:30:03.852Z,49.31
2017-01-22T11:31:13.609Z,49.79
2017-01-22T11:32:23.338Z,50.27
2017-01-22T11:33:33.112Z,50.27
2017-01-22T11:34:43.281Z,49.79
2017-01-22T11:35:53.058Z,49.98
2017-01-22T11:37:03.232Z,49.98
2017-01-22T11:38:12.960Z,50.17
2017-01-22T11:39:22.782Z,50.17
2017-01-22T11:40:32.767Z,50.46
2017-01-22T11:41:42.544Z,50.37
2017-01-22T11:42:52.982Z,50.37
2017-01-22T11:44:05.423Z,50.27
2017-01-22T11:45:14.720Z,50.37
2017-01-22T11:46:25.342Z,50.37
2017-01-22T11:47:35.770Z,49.98
2017-01-22T11:48:46.680Z,50.17
2017-01-22T11:49:56.417Z,50.17
2017-01-22T11:51:06.154Z,49.88
2017-01-22T11:52:16.322Z,50.08
2017-01-22T11:53:26.540Z,49.79
2017-01-22T11:54:37.595Z,49.88
2017-01-22T11:55:48.734Z,49.88
2017-01-22T11:57:03.429Z,49.79
2017-01-22T11:58:20.074Z,49.79
2017-01-22T11:59:35.055Z,49.88
2017-01-22T12:00:44.792Z,50.37
2017-01-22T12:01:54.516Z,49.69
2017-01-22T12:03:04.251Z,50.17
2017-01-22T12:04:14.032Z,50.08
2017-01-22T12:05:23.765Z,49.98
2017-01-22T12:06:33.518Z,50.37
2017-01-22T12:07:43.247Z,50.37
2017-01-22T12:08:52.981Z,49.5
2017-01-22T12:10:02.766Z,49.5
2017-01-22T12:11:12.499Z,49.6
2017-01-22T12:12:22.229Z,49.79
2017-01-22T12:13:32.406Z,49.41
2017-01-22T12:14:42.135Z,49.21
2017-01-22T12:15:51.916Z,49.5
2017-01-22T12:17:01.204Z,49.02
2017-01-22T12:18:11.383Z,48.74
2017-01-22T12:19:21.112Z,48.83
2017-01-22T12:20:30.840Z,48.44
2017-01-22T12:21:40.821Z,48.54
2017-01-22T12:22:50.995Z,48.25
2017-01-22T12:24:00.721Z,48.44
2017-01-22T12:25:10.450Z,48.25
2017-01-22T12:26:20.183Z,48.18
2017-01-22T12:27:30.400Z,48.28
2017-01-22T12:28:40.129Z,48.38
2017-01-22T12:29:49.859Z,48.18
2017-01-22T12:31:00.032Z,48.38
2017-01-22T12:32:10.205Z,47.99
2017-01-22T12:33:20.875Z,48.09
2017-01-22T12:34:31.052Z,47.71
2017-01-22T12:35:40.781Z,47.61
2017-01-22T12:36:50.514Z,47.51
2017-01-22T12:38:00.247Z,47.41
2017-01-22T12:39:10.469Z,47.8
2017-01-22T12:40:20.642Z,47.22
2017-01-22T12:41:30.367Z,47.13
2017-01-22T12:42:40.092Z,47.22
2017-01-22T12:43:50.713Z,47.32
2017-01-22T12:45:00.047Z,47.22
2017-01-22T12:46:09.332Z,47.41
2017-01-22T12:47:19.065Z,47.61
2017-01-22T12:48:29.238Z,47.99
2017-01-22T12:49:39.859Z,48.38
2017-01-22T12:50:49.640Z,48.38
2017-01-22T12:52:00.262Z,48.18
2017-01-22T12:53:09.995Z,48.47
2017-01-22T12:54:20.608Z,48.47
2017-01-22T12:55:31.232Z,48.57
2017-01-22T12:56:41.446Z,48.83
2017-01-22T12:57:51.176Z,48.76
2017-01-22T12:59:01.353Z,48.85
2017-01-22T13:00:11.085Z,49.05
2017-01-22T13:01:20.819Z,48.95
2017-01-22T13:02:31.049Z,49.43
2017-01-22T13:03:43.922Z,49.82
2017-01-22T13:04:58.914Z,50.39
2017-01-22T13:06:16.763Z,49.82
2017-01-22T13:07:29.466Z,50.29
2017-01-22T13:08:39.206Z,50.17
2017-01-22T13:09:48.488Z,50.58
2017-01-22T13:10:59.249Z,51.16
2017-01-22T13:12:09.662Z,50.84
2017-01-22T13:13:19.883Z,50.75
2017-01-22T13:14:30.061Z,50.75
2017-01-22T13:15:40.473Z,50.78
2017-01-22T13:16:51.050Z,50.78
2017-01-22T13:18:00.342Z,50.78
2017-01-22T13:19:10.281Z,50.87
2017-01-22T13:20:20.894Z,50.87
2017-01-22T13:21:31.068Z,50.75
2017-01-22T13:22:41.242Z,50.84
2017-01-22T13:23:51.418Z,50.78
2017-01-22T13:25:01.203Z,51.16
2017-01-22T13:26:10.934Z,50.1
2017-01-22T13:27:20.662Z,50.65
2017-01-22T13:28:30.395Z,50.65
2017-01-22T13:29:41.016Z,50.37
2017-01-22T13:30:50.801Z,50.27
2017-01-22T13:32:00.534Z,50.17
2017-01-22T13:33:10.711Z,50.27
2017-01-22T13:34:21.324Z,49.88
2017-01-22T13:35:31.051Z,50.08
2017-01-22T13:36:40.831Z,50.17
2017-01-22T13:37:51.005Z,49.98
2017-01-22T13:39:01.177Z,50.08
2017-01-22T13:40:11.347Z,50.08
2017-01-22T13:41:21.520Z,49.79
2017-01-22T13:42:31.305Z,49.98
2017-01-22T13:43:41.914Z,49.98
2017-01-22T13:44:52.971Z,50.17
2017-01-22T13:46:03.585Z,49.69
2017-01-22T13:47:13.322Z,49.69
2017-01-22T13:48:24.011Z,49.5
2017-01-22T13:49:33.747Z,49.41
2017-01-22T13:50:43.925Z,49.6
2017-01-22T13:51:53.654Z,49.69
2017-01-22T13:53:04.268Z,49.79
2017-01-22T13:54:14.945Z,49.79
2017-01-22T13:55:25.110Z,49.69
2017-01-22T13:56:34.399Z,49.79
2017-01-22T13:57:45.014Z,49.41
2017-01-22T13:58:54.746Z,49.31
2017-01-22T14:00:04.970Z,49.5
2017-01-22T14:01:14.699Z,49.41
2017-01-22T14:02:24.433Z,49.41
2017-01-22T14:03:34.167Z,49.02
2017-01-22T14:04:44.340Z,49.41
2017-01-22T14:05:53.673Z,49.12
2017-01-22T14:07:03.846Z,49.12
2017-01-22T14:08:14.019Z,49.12
2017-01-22T14:09:23.748Z,49.02
2017-01-22T14:10:34.357Z,49.29
2017-01-22T14:11:44.165Z,49.31
2017-01-22T14:12:54.779Z,49.12
2017-01-22T14:14:04.509Z,49.02
2017-01-22T14:15:14.686Z,49.02
2017-01-22T14:16:24.419Z,48.8
2017-01-22T14:17:34.196Z,49
2017-01-22T14:18:43.493Z,48.83
2017-01-22T14:19:53.667Z,49.19
2017-01-22T14:21:03.840Z,48.9
2017-01-22T14:22:14.017Z,49.19
2017-01-22T14:23:24.330Z,49
2017-01-22T14:24:34.059Z,48.9
2017-01-22T14:25:43.788Z,49.19
2017-01-22T14:26:53.957Z,48.8
2017-01-22T14:28:04.135Z,49.1
2017-01-22T14:29:14.364Z,49.1
2017-01-22T14:30:24.981Z,48.8
2017-01-22T14:31:34.714Z,48.9
2017-01-22T14:32:44.440Z,48.71
2017-01-22T14:33:54.169Z,48.8
2017-01-22T14:35:04.398Z,48.9
2017-01-22T14:36:14.563Z,48.9
2017-01-22T14:37:23.845Z,49
2017-01-22T14:38:34.021Z,49
2017-01-22T14:39:44.194Z,49.1
2017-01-22T14:40:53.976Z,49
2017-01-22T14:42:04.589Z,49.1
2017-01-22T14:43:14.313Z,49
2017-01-22T14:44:24.487Z,49.38
2017-01-22T14:45:34.661Z,49.38
2017-01-22T14:46:44.434Z,49.48
2017-01-22T14:47:54.603Z,49.57
2017-01-22T14:49:04.332Z,49.36
2017-01-22T14:50:14.509Z,49.38
2017-01-22T14:51:24.254Z,49.48
2017-01-22T14:52:34.479Z,49.29
2017-01-22T14:53:44.216Z,49.86
2017-01-22T14:54:53.941Z,49.67
2017-01-22T14:56:04.127Z,50.34
2017-01-22T14:57:14.072Z,49.67
2017-01-22T14:58:23.873Z,49.84
2017-01-22T14:59:34.698Z,49.76
2017-01-22T15:00:45.327Z,49.96
2017-01-22T15:01:55.620Z,49.76
2017-01-22T15:03:05.345Z,49.96
2017-01-22T15:04:15.123Z,50.15
2017-01-22T15:05:25.392Z,50.34
2017-01-22T15:06:35.124Z,50.63
2017-01-22T15:07:45.289Z,50.34
2017-01-22T15:08:54.703Z,50.56
2017-01-22T15:10:04.480Z,50.37
2017-01-22T15:11:14.436Z,50.56
2017-01-22T15:12:24.170Z,50.65
2017-01-22T15:13:34.671Z,50.56
2017-01-22T15:14:45.080Z,50.46
2017-01-22T15:15:55.810Z,50.65
2017-01-22T15:17:05.195Z,50.46
2017-01-22T15:18:15.535Z,50.17
2017-01-22T15:19:25.273Z,50.37
2017-01-22T15:20:34.578Z,50.75
2017-01-22T15:21:44.363Z,50.46
2017-01-22T15:22:54.102Z,50.75
2017-01-22T15:24:03.830Z,50.78
2017-01-22T15:25:13.202Z,51.16
2017-01-22T15:26:23.380Z,50.96
2017-01-22T15:27:33.177Z,50.68
2017-01-22T15:28:42.909Z,50.78
2017-01-22T15:29:53.111Z,50.68
2017-01-22T15:31:02.841Z,50.39
2017-01-22T15:32:13.017Z,50.29
2017-01-22T15:33:22.897Z,50.2
2017-01-22T15:34:32.839Z,50.29
2017-01-22T15:35:42.584Z,50.32
2017-01-22T15:36:52.357Z,50.2
2017-01-22T15:38:02.535Z,50.51
2017-01-22T15:39:12.311Z,50.32
2017-01-22T15:40:22.485Z,50.7
2017-01-22T15:41:32.697Z,50.61
2017-01-22T15:42:43.315Z,50.42
2017-01-22T15:43:53.485Z,50.42
2017-01-22T15:45:03.585Z,50.61
2017-01-22T15:46:13.083Z,50.42
2017-01-22T15:47:23.251Z,50.7
2017-01-22T15:48:33.201Z,50.32
2017-01-22T15:49:44.267Z,50.32
2017-01-22T15:50:53.612Z,50.51
2017-01-22T15:52:04.629Z,50.32
2017-01-22T15:53:14.822Z,50.32
2017-01-22T15:54:24.851Z,50.42
2017-01-22T15:55:34.588Z,50.42
2017-01-22T15:56:45.569Z,50.51
2017-01-22T15:57:55.779Z,50.42
2017-01-22T15:59:06.399Z,50.32
2017-01-22T16:00:18.509Z,50.42
2017-01-22T16:01:36.521Z,50.42
2017-01-22T16:02:51.947Z,50.7
2017-01-22T16:04:04.480Z,50.51
2017-01-22T16:05:13.770Z,50.32
2017-01-22T16:06:23.536Z,50.7
2017-01-22T16:07:33.760Z,50.03
2017-01-22T16:08:43.497Z,50.23
2017-01-22T16:09:53.671Z,50.03
2017-01-22T16:11:03.407Z,49.84
2017-01-22T16:12:12.703Z,50.13
2017-01-22T16:13:22.494Z,50.03
2017-01-22T16:14:33.122Z,50.42
2017-01-22T16:15:43.296Z,49.74
2017-01-22T16:16:53.473Z,49.46
2017-01-22T16:18:04.090Z,49.74
2017-01-22T16:19:13.876Z,49.84
2017-01-22T16:20:24.489Z,49.74
2017-01-22T16:21:33.778Z,49.17
2017-01-22T16:22:43.503Z,49.46
2017-01-22T16:23:53.672Z,49.55
2017-01-22T16:25:03.454Z,49.46
2017-01-22T16:26:13.635Z,49.26
2017-01-22T16:27:23.808Z,49.26
2017-01-22T16:28:34.421Z,48.59
2017-01-22T16:29:44.591Z,49.17
2017-01-22T16:30:54.371Z,48.79
2017-01-22T16:32:04.101Z,48.88
2017-01-22T16:33:14.714Z,48.69
2017-01-22T16:34:24.443Z,48.79
2017-01-22T16:35:34.616Z,48.79
2017-01-22T16:36:44.413Z,48.59
2017-01-22T16:37:54.159Z,48.49
2017-01-22T16:39:05.240Z,48.69
2017-01-22T16:40:15.857Z,48.49
2017-01-22T16:41:25.601Z,48.61
2017-01-22T16:42:35.823Z,48.3
2017-01-22T16:43:46.001Z,48.4
2017-01-22T16:44:56.175Z,48.04
2017-01-22T16:46:06.815Z,48.33
2017-01-22T16:47:16.993Z,48.52
2017-01-22T16:48:26.789Z,48.23
2017-01-22T16:49:36.970Z,48.21
2017-01-22T16:50:46.272Z,48.43
2017-01-22T16:51:56.884Z,48.4
2017-01-22T16:53:07.061Z,48.33
2017-01-22T16:54:18.635Z,48.13
2017-01-22T16:55:28.820Z,47.75
2017-01-22T16:56:39.006Z,47.75
2017-01-22T16:57:49.222Z,47.75
2017-01-22T16:58:59.847Z,47.56
2017-01-22T17:00:10.532Z,47.46
2017-01-22T17:01:20.702Z,47.66
2017-01-22T17:02:30.436Z,47.66
2017-01-22T17:03:39.728Z,47.85
2017-01-22T17:04:50.382Z,47.94
2017-01-22T17:06:00.191Z,47.72
2017-01-22T17:07:11.320Z,47.85
2017-01-22T17:08:22.622Z,47.94
2017-01-22T17:09:32.818Z,47.94
2017-01-22T17:10:44.487Z,47.53
2017-01-22T17:11:54.062Z,47.82
2017-01-22T17:13:04.754Z,47.75
2017-01-22T17:14:15.355Z,48.21
2017-01-22T17:15:25.369Z,47.44
2017-01-22T17:16:35.333Z,48.11
2017-01-22T17:17:46.003Z,47.56
2017-01-22T17:18:56.716Z,48.52
2017-01-22T17:20:06.069Z,48.33
2017-01-22T17:21:15.959Z,48.43
2017-01-22T17:22:26.731Z,48.4
2017-01-22T17:23:37.057Z,48.4
2017-01-22T17:24:47.242Z,48.4
2017-01-22T17:25:57.536Z,48.3
2017-01-22T17:27:08.557Z,48.3
2017-01-22T17:28:18.473Z,48.11
2017-01-22T17:29:29.318Z,47.92
2017-01-22T17:30:39.491Z,48.21
2017-01-22T17:31:49.025Z,48.49
2017-01-22T17:33:00.255Z,48.4
2017-01-22T17:34:10.444Z,48.49
2017-01-22T17:35:21.205Z,48.59
2017-01-22T17:36:31.398Z,48.49
2017-01-22T17:37:42.024Z,48.4
2017-01-22T17:38:52.392Z,48.79
2017-01-22T17:40:02.117Z,48.69
2017-01-22T17:41:12.178Z,48.88
2017-01-22T17:42:22.375Z,48.59
2017-01-22T17:43:32.549Z,48.69
2017-01-22T17:44:42.274Z,48.69
2017-01-22T17:45:52.455Z,48.88
2017-01-22T17:47:02.253Z,49.07
2017-01-22T17:48:12.434Z,49.17
2017-01-22T17:49:23.043Z,49.17
2017-01-22T17:50:32.776Z,48.97
2017-01-22T17:51:42.621Z,48.85
2017-01-22T17:52:55.102Z,49.05
2017-01-22T17:54:06.046Z,49.15
2017-01-22T17:55:16.225Z,49.15
2017-01-22T17:56:26.838Z,49.43
2017-01-22T17:57:37.898Z,49.43
2017-01-22T17:58:47.692Z,49.07
2017-01-22T17:59:58.420Z,49.43
2017-01-22T18:01:09.071Z,49.05
2017-01-22T18:02:18.877Z,49.24
2017-01-22T18:03:30.023Z,49.72
2017-01-22T18:04:40.398Z,49.72
2017-01-22T18:05:51.098Z,49.82
2017-01-22T18:07:01.806Z,49.82
2017-01-22T18:08:11.638Z,49.82
2017-01-22T18:09:21.462Z,49.62
2017-01-22T18:10:32.644Z,49.43
2017-01-22T18:11:43.329Z,49.43
2017-01-22T18:12:54.030Z,49.52
2017-01-22T18:14:04.339Z,49.52
2017-01-22T18:15:14.193Z,49.62
2017-01-22T18:16:24.470Z,49.52
2017-01-22T18:17:35.843Z,49.82
2017-01-22T18:18:46.517Z,49.62
2017-01-22T18:19:58.257Z,49.72
2017-01-22T18:21:08.503Z,49.82
2017-01-22T18:22:19.500Z,49.82
2017-01-22T18:23:30.735Z,49.72
2017-01-22T18:24:41.182Z,49.62
2017-01-22T18:25:51.455Z,49.52
2017-01-22T18:27:02.338Z,49.91
2017-01-22T18:28:13.422Z,49.91
2017-01-22T18:29:22.975Z,49.62
2017-01-22T18:30:33.260Z,49.72
2017-01-22T18:31:43.817Z,49.62
2017-01-22T18:32:54.062Z,49.82
2017-01-22T18:34:04.336Z,49.72
2017-01-22T18:35:14.069Z,49.52
2017-01-22T18:36:24.722Z,49.62
2017-01-22T18:37:35.339Z,49.52
2017-01-22T18:38:45.541Z,49.62
2017-01-22T18:39:56.222Z,49.72
2017-01-22T18:41:05.975Z,49.72
2017-01-22T18:42:16.632Z,49.52
2017-01-22T18:43:26.385Z,49.72
2017-01-22T18:44:36.079Z,49.72
2017-01-22T18:45:46.311Z,50.29
2017-01-22T18:46:57.489Z,50.2
2017-01-22T18:48:08.073Z,50.29
2017-01-22T18:49:18.711Z,50.2
2017-01-22T18:50:28.681Z,50.29
2017-01-22T18:51:39.349Z,50.2
2017-01-22T18:52:49.978Z,50.2
2017-01-22T18:54:00.620Z,50.37
2017-01-22T18:55:11.049Z,49.91
2017-01-22T18:56:21.430Z,50.1
2017-01-22T18:57:31.223Z,50.01
2017-01-22T18:58:41.509Z,50.08
2017-01-22T18:59:51.794Z,50.08
2017-01-22T19:01:01.686Z,50.08
2017-01-22T19:02:12.412Z,50.01
2017-01-22T19:03:23.245Z,50.01
2017-01-22T19:04:33.007Z,49.98
2017-01-22T19:05:43.505Z,49.69
2017-01-22T19:06:54.129Z,49.69
2017-01-22T19:08:04.631Z,49.72
2017-01-22T19:09:15.491Z,50.08
2017-01-22T19:10:25.320Z,49.69
2017-01-22T19:11:36.410Z,50.1
2017-01-22T19:12:46.167Z,50.1
2017-01-22T19:13:55.954Z,50.27
2017-01-22T19:15:06.229Z,49.69
2017-01-22T19:16:16.440Z,49.69
2017-01-22T19:17:26.212Z,49.88
2017-01-22T19:18:36.845Z,49.79
2017-01-22T19:19:46.606Z,49.69
2017-01-22T19:20:56.060Z,49.69
2017-01-22T19:22:06.697Z,49.79
2017-01-22T19:23:16.950Z,49.5
2017-01-22T19:24:27.608Z,49.6
2017-01-22T19:25:38.266Z,49.79
2017-01-22T19:26:48.526Z,49.82
2017-01-22T19:27:59.119Z,49.43
2017-01-22T19:29:11.028Z,49.6
2017-01-22T19:30:21.937Z,49.5
2017-01-22T19:31:32.254Z,49.5
2017-01-22T19:32:43.767Z,49.6
2017-01-22T19:33:54.098Z,50.37
2017-01-22T19:35:04.162Z,49.91
2017-01-22T19:36:14.856Z,50.39
2017-01-22T19:37:25.580Z,50.17
2017-01-22T19:38:36.158Z,50.17
2017-01-22T19:39:46.351Z,50.17
2017-01-22T19:40:56.672Z,49.98
2017-01-22T19:42:11.221Z,50.08
2017-01-22T19:43:21.463Z,49.98
2017-01-22T19:44:31.275Z,50.08
2017-01-22T19:45:41.073Z,50.1
2017-01-22T19:46:51.381Z,50.17
2017-01-22T19:48:00.815Z,50.08
2017-01-22T19:49:11.092Z,50.08
2017-01-22T19:50:22.236Z,50.08
2017-01-22T19:51:33.185Z,49.98
2017-01-22T19:52:43.374Z,49.88
2017-01-22T19:53:53.139Z,49.69
2017-01-22T19:55:03.333Z,49.79
2017-01-22T19:56:13.645Z,49.98
2017-01-22T19:57:23.819Z,50.08
2017-01-22T19:58:34.095Z,49.98
2017-01-22T19:59:45.425Z,50.17
2017-01-22T20:00:55.230Z,49.79
2017-01-22T20:02:05.914Z,50.08
2017-01-22T20:03:16.836Z,49.79
2017-01-22T20:04:27.464Z,49.79
2017-01-22T20:05:37.009Z,49.98
2017-01-22T20:06:47.465Z,49.6
2017-01-22T20:07:57.880Z,49.69
2017-01-22T20:09:08.602Z,49.88
2017-01-22T20:10:20.134Z,49.69
2017-01-22T20:11:30.887Z,49.98
2017-01-22T20:12:41.329Z,49.79
2017-01-22T20:13:52.537Z,49.79
2017-01-22T20:15:04.187Z,49.6
2017-01-22T20:16:15.293Z,49.79
2017-01-22T20:17:26.025Z,49.98
2017-01-22T20:18:37.761Z,49.69
2017-01-22T20:19:48.244Z,50.08
2017-01-22T20:20:59.956Z,49.69
2017-01-22T20:22:10.235Z,49.69
2017-01-22T20:23:21.327Z,49.69
2017-01-22T20:24:32.060Z,49.6
2017-01-22T20:25:42.817Z,49.79
2017-01-22T20:26:57.974Z,49.79
2017-01-22T20:28:16.537Z,49.6
2017-01-22T20:29:34.885Z,49.5
2017-01-22T20:30:45.958Z,49.6
2017-01-22T20:31:57.051Z,49.5
2017-01-22T20:33:07.788Z,49.69
2017-01-22T20:34:19.415Z,49.6
2017-01-22T20:35:31.707Z,50.37
2017-01-22T20:36:44.224Z,50.37
2017-01-22T20:37:57.022Z,50.08
2017-01-22T20:39:11.978Z,50.08
2017-01-22T20:40:23.780Z,50.08
2017-01-22T20:41:35.212Z,49.88
2017-01-22T20:42:47.228Z,49.79
2017-01-22T20:43:59.975Z,49.98
2017-01-22T20:45:13.080Z,49.6
2017-01-22T20:46:25.946Z,50.08
2017-01-22T20:47:37.695Z,50.08
2017-01-22T20:48:48.688Z,49.79
2017-01-22T20:50:01.166Z,47.58
2017-01-22T20:51:12.902Z,46.12
2017-01-22T20:52:25.148Z,44.93
2017-01-22T20:53:37.196Z,44.33
2017-01-22T20:54:48.114Z,43.73
2017-01-22T20:55:59.175Z,42.76
2017-01-22T20:57:12.520Z,41.68
2017-01-22T20:58:23.657Z,42.52
2017-01-22T20:59:35.223Z,42.11
2017-01-22T21:00:46.840Z,42.11
2017-01-22T21:01:57.957Z,42.48
2017-01-22T21:03:08.218Z,42.77
2017-01-22T21:04:18.931Z,42.77
2017-01-22T21:05:30.133Z,41.88
2017-01-22T21:06:41.758Z,41.79
2017-01-22T21:07:52.700Z,44.15
2017-01-22T21:09:02.853Z,46.66
2017-01-22T21:10:13.525Z,47.25
2017-01-22T21:11:25.815Z,48.52
2017-01-22T21:12:37.028Z,48.8
2017-01-22T21:13:50.442Z,49.59
2017-01-22T21:15:02.315Z,50.57
2017-01-22T21:16:11.608Z,50.86
2017-01-22T21:17:22.909Z,50.57
2017-01-22T21:18:36.039Z,50.79
2017-01-22T21:19:48.660Z,51.36
2017-01-22T21:21:00.376Z,51.56
2017-01-22T21:22:10.909Z,51.56
2017-01-22T21:23:21.599Z,51.97
2017-01-22T21:24:33.780Z,51.87
2017-01-22T21:25:46.481Z,51.77
2017-01-22T21:26:57.634Z,51.77
2017-01-22T21:28:08.168Z,51.77
2017-01-22T21:29:20.196Z,51.77
2017-01-22T21:30:30.986Z,52.06
2017-01-22T21:31:41.882Z,51.87
2017-01-22T21:32:52.317Z,51.87
2017-01-22T21:34:02.925Z,51.77
2017-01-22T21:35:14.930Z,51.87
2017-01-22T21:36:25.636Z,51.99
2017-01-22T21:37:36.953Z,51.61
2017-01-22T21:38:47.834Z,51.7
2017-01-22T21:39:59.048Z,51.89
2017-01-22T21:41:09.960Z,51.7
2017-01-22T21:42:21.506Z,52.09
2017-01-22T21:43:33.079Z,51.51
2017-01-22T21:44:44.916Z,51.22
2017-01-22T21:45:55.837Z,51.51
2017-01-22T21:47:06.609Z,51.61
2017-01-22T21:48:18.256Z,51.61
2017-01-22T21:49:30.193Z,51.32
2017-01-22T21:50:41.985Z,51.61
2017-01-22T21:51:53.536Z,51.61
2017-01-22T21:53:04.669Z,51.51
2017-01-22T21:54:15.726Z,51.61
2017-01-22T21:55:26.774Z,51.61
2017-01-22T21:56:37.217Z,51.79
2017-01-22T21:57:48.962Z,51.89
2017-01-22T21:59:01.342Z,51.22
2017-01-22T22:00:12.232Z,51.73
2017-01-22T22:01:23.070Z,51.42
2017-01-22T22:02:35.834Z,51.42
2017-01-22T22:03:47.027Z,51.42
2017-01-22T22:04:59.199Z,51.13
2017-01-22T22:06:10.423Z,51.32
2017-01-22T22:07:21.580Z,51.32
2017-01-22T22:08:32.173Z,50.93
2017-01-22T22:09:43.771Z,51.06
2017-01-22T22:10:55.005Z,50.74
2017-01-22T22:12:06.312Z,50.84
2017-01-22T22:13:16.902Z,50.77
2017-01-22T22:14:27.178Z,50.77
2017-01-22T22:15:36.844Z,50.77
2017-01-22T22:16:48.266Z,50.96
2017-01-22T22:17:58.902Z,50.87
2017-01-22T22:19:09.836Z,50.77
2017-01-22T22:20:21.298Z,50.67
2017-01-22T22:21:33.560Z,50.77
2017-01-22T22:22:44.659Z,50.77
2017-01-22T22:23:55.521Z,51.06
2017-01-22T22:25:06.575Z,50.87
2017-01-22T22:26:17.320Z,50.87
2017-01-22T22:27:28.858Z,50.77
2017-01-22T22:28:41.562Z,50.67
2017-01-22T22:29:54.179Z,50.77
2017-01-22T22:31:05.494Z,50.67
2017-01-22T22:32:18.582Z,50.67
2017-01-22T22:33:30.071Z,50.87
2017-01-22T22:34:43.709Z,51.15
2017-01-22T22:35:55.405Z,50.96
2017-01-22T22:37:06.022Z,51.06
2017-01-22T22:38:15.752Z,51.34
2017-01-22T22:39:25.529Z,51.34
2017-01-22T22:40:35.257Z,51.25
2017-01-22T22:41:45.876Z,51.82
2017-01-22T22:42:55.605Z,51.63
2017-01-22T22:44:05.795Z,51.73
2017-01-22T22:45:16.014Z,51.34
2017-01-22T22:46:26.187Z,51.63
2017-01-22T22:47:36.361Z,51.54
2017-01-22T22:48:46.090Z,51.54
2017-01-22T22:49:56.251Z,51.54
2017-01-22T22:51:06.029Z,51.63
2017-01-22T22:52:15.762Z,51.54
2017-01-22T22:53:25.959Z,51.92
2017-01-22T22:54:36.128Z,51.44
2017-01-22T22:55:45.886Z,51.06
2017-01-22T22:56:55.670Z,51.06
2017-01-22T22:58:06.280Z,51.15
2017-01-22T22:59:16.485Z,51.34
2017-01-22T23:00:26.650Z,51.22
2017-01-22T23:01:36.819Z,51.92
2017-01-22T23:02:46.601Z,51.54
2017-01-22T23:03:56.782Z,51.42
2017-01-22T23:05:06.515Z,51.63
2017-01-22T23:06:16.245Z,51.61
2017-01-22T23:07:25.970Z,51.54
2017-01-22T23:08:36.194Z,51.61
2017-01-22T23:09:45.920Z,51.7
2017-01-22T23:10:55.649Z,51.61
2017-01-22T23:12:05.385Z,51.61
2017-01-22T23:13:15.146Z,51.32
2017-01-22T23:14:24.928Z,51.32
2017-01-22T23:15:35.545Z,51.42
2017-01-22T23:16:45.279Z,51.44
2017-01-22T23:17:55.000Z,51.61
2017-01-22T23:19:04.730Z,51.32
2017-01-22T23:20:14.503Z,51.61
2017-01-22T23:21:23.797Z,51.61
2017-01-22T23:22:33.524Z,51.42
2017-01-22T23:23:43.250Z,51.61
2017-01-22T23:24:52.983Z,51.89
2017-01-22T23:26:03.208Z,51.99
2017-01-22T23:27:12.498Z,51.89
2017-01-22T23:28:22.663Z,52.09
2017-01-22T23:29:32.392Z,52.09
2017-01-22T23:30:42.560Z,51.7
2017-01-22T23:31:52.338Z,51.99
2017-01-22T23:33:02.064Z,51.99
2017-01-22T23:34:11.792Z,51.99
2017-01-22T23:35:21.966Z,51.79
2017-01-22T23:36:31.699Z,51.79
2017-01-22T23:37:41.488Z,51.7
2017-01-22T23:38:51.658Z,51.61
2017-01-22T23:40:01.387Z,51.79
2017-01-22T23:41:11.126Z,51.99
2017-01-22T23:42:20.857Z,51.89
2017-01-22T23:43:30.630Z,52.09
2017-01-22T23:44:40.355Z,51.61
2017-01-22T23:45:50.537Z,51.79
2017-01-22T23:47:01.143Z,51.7
2017-01-22T23:48:10.867Z,52.09
2017-01-22T23:49:20.648Z,51.7
2017-01-22T23:50:30.822Z,51.89
2017-01-22T23:51:40.555Z,51.89
2017-01-22T23:52:51.200Z,51.79
2017-01-22T23:54:01.377Z,51.99
2017-01-22T23:55:11.150Z,51.89
2017-01-22T23:56:21.324Z,52.09
2017-01-22T23:57:31.054Z,51.89
2017-01-22T23:58:40.337Z,51.99
2017-01-22T23:59:50.075Z,52.37
